createdAt,value
2017-07-24T00:00:00.313Z,83.40
2017-07-24T00:01:00.300Z,83.73
2017-07-24T00:02:00.341Z,83.30
2017-07-24T00:03:00.299Z,83.62
2017-07-24T00:04:00.333Z,83.91
2017-07-24T00:05:00.308Z,83.81
2017-07-24T00:06:00.280Z,84.81
2017-07-24T00:07:00.340Z,85.03
2017-07-24T00:08:00.365Z,85.24
2017-07-24T00:09:00.310Z,84.44
2017-07-24T00:10:00.337Z,84.71
2017-07-24T00:11:00.368Z,84.52
2017-07-24T00:12:00.285Z,84.95
2017-07-24T00:13:00.281Z,85.05
2017-07-24T00:14:00.305Z,84.87
2017-07-24T00:15:00.347Z,84.89
2017-07-24T00:16:00.306Z,84.60
2017-07-24T00:17:00.313Z,84.26
2017-07-24T00:18:00.341Z,84.44
2017-07-24T00:19:00.275Z,84.17
2017-07-24T00:20:00.274Z,84.47
2017-07-24T00:21:00.304Z,85.46
2017-07-24T00:22:00.345Z,85.80
2017-07-24T00:23:00.276Z,85.61
2017-07-24T00:24:00.304Z,85.93
2017-07-24T00:25:00.311Z,85.61
2017-07-24T00:26:00.304Z,85.83
2017-07-24T00:27:00.305Z,86.22
2017-07-24T00:28:00.280Z,86.07
2017-07-24T00:29:00.307Z,85.77
2017-07-24T00:30:00.340Z,85.19
2017-07-24T00:31:00.386Z,85.96
2017-07-24T00:32:00.344Z,85.85
2017-07-24T00:33:00.355Z,86.01
2017-07-24T00:34:00.339Z,85.99
2017-07-24T00:35:00.339Z,86.52
2017-07-24T00:36:00.295Z,85.66
2017-07-24T00:37:00.314Z,85.91
2017-07-24T00:38:00.288Z,85.66
2017-07-24T00:39:00.347Z,85.43
2017-07-24T00:40:00.322Z,85.30
2017-07-24T00:41:00.361Z,84.71
2017-07-24T00:42:00.392Z,84.60
2017-07-24T00:43:00.382Z,84.81
2017-07-24T00:44:00.392Z,84.89
2017-07-24T00:45:00.362Z,85.19
2017-07-24T00:46:00.318Z,85.19
2017-07-24T00:47:00.300Z,86.04
2017-07-24T00:48:00.348Z,86.17
2017-07-24T00:49:00.390Z,86.79
2017-07-24T00:50:00.375Z,87.21
2017-07-24T00:51:00.346Z,87.59
2017-07-24T00:52:00.266Z,87.93
2017-07-24T00:53:00.302Z,88.23
2017-07-24T00:54:00.374Z,88.50
2017-07-24T00:55:00.327Z,89.06
2017-07-24T00:56:00.328Z,89.59
2017-07-24T00:57:00.317Z,89.83
2017-07-24T00:58:00.322Z,89.94
2017-07-24T00:59:00.332Z,89.91
2017-07-24T01:00:00.309Z,89.70
2017-07-24T01:01:00.443Z,89.70
2017-07-24T01:02:00.306Z,89.83
2017-07-24T01:03:00.334Z,89.83
2017-07-24T01:04:00.342Z,89.99
2017-07-24T01:05:00.345Z,89.86
2017-07-24T01:06:00.359Z,90.07
2017-07-24T01:07:00.340Z,90.18
2017-07-24T01:08:00.344Z,90.47
2017-07-24T01:09:00.360Z,89.99
2017-07-24T01:10:00.332Z,89.97
2017-07-24T01:11:00.368Z,90.13
2017-07-24T01:12:00.304Z,90.20
2017-07-24T01:13:00.333Z,90.09
2017-07-24T01:14:00.332Z,90.09
2017-07-24T01:15:00.352Z,90.15
2017-07-24T01:16:00.331Z,90.36
2017-07-24T01:17:00.336Z,90.45
2017-07-24T01:18:00.370Z,90.69
2017-07-24T01:19:00.336Z,90.96
2017-07-24T01:20:00.400Z,91.36
2017-07-24T01:21:00.349Z,91.33
2017-07-24T01:22:00.352Z,91.44
2017-07-24T01:23:00.380Z,91.55
2017-07-24T01:24:00.411Z,91.38
2017-07-24T01:25:00.344Z,91.63
2017-07-24T01:26:00.391Z,91.92
2017-07-24T01:27:00.352Z,91.97
2017-07-24T01:28:00.327Z,92.19
2017-07-24T01:29:00.356Z,92.22
2017-07-24T01:30:00.369Z,92.27
2017-07-24T01:31:00.314Z,92.51
2017-07-24T01:32:00.374Z,92.43
2017-07-24T01:33:00.345Z,92.95
2017-07-24T01:34:00.375Z,93.32
2017-07-24T01:35:00.377Z,93.59
2017-07-24T01:36:00.313Z,93.89
2017-07-24T01:37:00.379Z,94.34
2017-07-24T01:38:00.373Z,94.59
2017-07-24T01:39:00.324Z,94.69
2017-07-24T01:40:00.420Z,94.99
2017-07-24T01:41:00.383Z,94.93
2017-07-24T01:42:00.355Z,95.28
2017-07-24T01:43:00.334Z,95.31
2017-07-24T01:44:00.364Z,95.39
2017-07-24T01:45:00.399Z,95.47
2017-07-24T01:46:00.416Z,95.77
2017-07-24T01:47:00.369Z,96.39
2017-07-24T01:48:00.354Z,96.55
2017-07-24T01:49:00.333Z,96.72
2017-07-24T01:50:00.404Z,97.04
2017-07-24T01:51:00.332Z,96.93
2017-07-24T01:52:00.432Z,97.12
2017-07-24T01:53:00.366Z,97.53
2017-07-24T01:54:00.397Z,97.99
2017-07-24T01:55:00.392Z,98.15
2017-07-24T01:56:00.357Z,98.02
2017-07-24T01:57:00.389Z,98.37
2017-07-24T01:58:00.339Z,98.66
2017-07-24T01:59:00.390Z,98.66
2017-07-24T02:00:00.365Z,98.99
2017-07-24T02:01:00.366Z,98.99
2017-07-24T02:02:00.345Z,98.69
2017-07-24T02:03:00.416Z,98.55
2017-07-24T02:04:00.403Z,98.64
2017-07-24T02:05:00.413Z,99.15
2017-07-24T02:06:00.343Z,99.23
2017-07-24T02:07:00.413Z,99.13
2017-07-24T02:08:00.376Z,98.99
2017-07-24T02:09:00.380Z,98.80
2017-07-24T02:10:00.365Z,99.04
2017-07-24T02:11:00.350Z,98.99
2017-07-24T02:12:00.337Z,98.64
2017-07-24T02:13:00.409Z,98.69
2017-07-24T02:14:00.358Z,99.43
2017-07-24T02:15:00.367Z,99.43
2017-07-24T02:16:00.417Z,99.99
2017-07-24T02:17:00.342Z,99.99
2017-07-24T02:18:00.342Z,99.99
2017-07-24T02:19:04.607Z,99.99
2017-07-24T02:20:00.349Z,99.99
2017-07-24T02:21:00.437Z,99.99
2017-07-24T02:22:00.365Z,99.99
2017-07-24T02:23:00.449Z,99.99
2017-07-24T02:24:00.374Z,99.99
2017-07-24T02:25:00.449Z,99.99
2017-07-24T02:26:00.382Z,99.99
2017-07-24T02:27:00.354Z,99.99
2017-07-24T02:28:00.417Z,99.99
2017-07-24T02:29:00.377Z,99.99
2017-07-24T02:30:00.356Z,99.99
2017-07-24T02:31:00.394Z,99.89
2017-07-24T02:32:00.394Z,99.89
2017-07-24T02:33:00.426Z,99.86
2017-07-24T02:34:00.449Z,99.81
2017-07-24T02:35:00.356Z,99.94
2017-07-24T02:36:00.393Z,99.83
2017-07-24T02:37:00.384Z,99.70
2017-07-24T02:38:00.449Z,99.45
2017-07-24T02:39:00.392Z,99.37
2017-07-24T02:40:00.357Z,99.29
2017-07-24T02:41:00.390Z,99.64
2017-07-24T02:42:00.379Z,99.99
2017-07-24T02:43:00.359Z,99.99
2017-07-24T02:44:00.384Z,99.99
2017-07-24T02:45:00.355Z,99.99
2017-07-24T02:46:00.357Z,99.99
2017-07-24T02:47:00.356Z,99.99
2017-07-24T02:48:00.354Z,99.83
2017-07-24T02:49:00.354Z,99.45
2017-07-24T02:50:00.429Z,99.21
2017-07-24T02:51:00.389Z,99.04
2017-07-24T02:52:00.355Z,98.99
2017-07-24T02:53:00.393Z,98.88
2017-07-24T02:54:00.427Z,98.80
2017-07-24T02:55:00.389Z,98.77
2017-07-24T02:56:00.368Z,98.83
2017-07-24T02:57:00.391Z,98.66
2017-07-24T02:58:00.392Z,98.64
2017-07-24T02:59:00.427Z,98.42
2017-07-24T03:00:00.439Z,98.29
2017-07-24T03:01:00.403Z,98.21
2017-07-24T03:02:00.462Z,98.31
2017-07-24T03:03:00.462Z,98.31
2017-07-24T03:04:00.382Z,98.29
2017-07-24T03:05:00.378Z,98.21
2017-07-24T03:06:00.450Z,98.29
2017-07-24T03:07:00.377Z,98.29
2017-07-24T03:08:00.439Z,98.21
2017-07-24T03:09:00.451Z,98.21
2017-07-24T03:10:00.384Z,98.23
2017-07-24T03:11:00.409Z,98.12
2017-07-24T03:12:00.472Z,98.37
2017-07-24T03:13:00.405Z,98.66
2017-07-24T03:14:00.436Z,98.66
2017-07-24T03:15:00.386Z,98.69
2017-07-24T03:16:00.445Z,98.61
2017-07-24T03:17:00.391Z,98.45
2017-07-24T03:18:00.473Z,98.66
2017-07-24T03:19:00.383Z,98.77
2017-07-24T03:20:00.412Z,98.94
2017-07-24T03:21:00.379Z,98.99
2017-07-24T03:22:00.372Z,98.99
2017-07-24T03:23:00.405Z,98.94
2017-07-24T03:24:00.378Z,98.83
2017-07-24T03:25:00.380Z,98.72
2017-07-24T03:26:00.380Z,98.53
2017-07-24T03:27:00.386Z,98.61
2017-07-24T03:28:00.412Z,98.83
2017-07-24T03:29:00.411Z,98.94
2017-07-24T03:30:00.372Z,99.10
2017-07-24T03:31:00.438Z,99.07
2017-07-24T03:32:00.371Z,99.10
2017-07-24T03:33:00.442Z,99.32
2017-07-24T03:34:00.388Z,99.29
2017-07-24T03:35:00.441Z,99.13
2017-07-24T03:36:00.408Z,99.13
2017-07-24T03:37:00.389Z,99.40
2017-07-24T03:38:00.360Z,99.51
2017-07-24T03:39:00.392Z,99.48
2017-07-24T03:40:00.401Z,99.70
2017-07-24T03:41:00.492Z,99.96
2017-07-24T03:42:00.423Z,99.99
2017-07-24T03:43:00.495Z,99.99
2017-07-24T03:44:00.430Z,99.99
2017-07-24T03:45:00.427Z,99.99
2017-07-24T03:46:00.459Z,99.99
2017-07-24T03:47:00.488Z,99.99
2017-07-24T03:48:00.434Z,99.99
2017-07-24T03:49:00.496Z,99.99
2017-07-24T03:50:00.426Z,99.99
2017-07-24T03:51:00.403Z,99.99
2017-07-24T03:52:00.466Z,99.99
2017-07-24T03:53:00.403Z,99.99
2017-07-24T03:54:00.441Z,99.99
2017-07-24T03:55:00.426Z,99.70
2017-07-24T03:56:00.465Z,99.59
2017-07-24T03:57:00.474Z,99.34
2017-07-24T03:58:00.471Z,99.23
2017-07-24T03:59:00.407Z,99.13
2017-07-24T04:00:00.466Z,98.96
2017-07-24T04:01:00.462Z,98.85
2017-07-24T04:02:00.462Z,98.80
2017-07-24T04:03:00.430Z,98.75
2017-07-24T04:04:00.399Z,98.72
2017-07-24T04:05:00.418Z,98.85
2017-07-24T04:06:00.465Z,98.80
2017-07-24T04:07:00.461Z,98.55
2017-07-24T04:08:00.427Z,98.45
2017-07-24T04:09:00.435Z,98.37
2017-07-24T04:10:00.414Z,98.34
2017-07-24T04:11:00.380Z,98.12
2017-07-24T04:12:00.326Z,98.40
2017-07-24T04:13:00.419Z,98.37
2017-07-24T04:14:00.420Z,98.10
2017-07-24T04:15:00.414Z,98.12
2017-07-24T04:16:00.415Z,98.18
2017-07-24T04:17:00.408Z,98.18
2017-07-24T04:18:00.421Z,97.99
2017-07-24T04:19:00.411Z,97.88
2017-07-24T04:20:00.433Z,98.02
2017-07-24T04:21:00.482Z,98.59
2017-07-24T04:22:00.408Z,98.31
2017-07-24T04:23:00.468Z,97.99
2017-07-24T04:24:00.434Z,97.61
2017-07-24T04:25:00.441Z,97.53
2017-07-24T04:26:00.456Z,97.61
2017-07-24T04:27:00.472Z,97.39
2017-07-24T04:28:00.473Z,97.26
2017-07-24T04:29:00.409Z,97.15
2017-07-24T04:30:00.476Z,97.04
2017-07-24T04:31:00.481Z,96.83
2017-07-24T04:32:00.456Z,97.42
2017-07-24T04:33:00.475Z,97.28
2017-07-24T04:34:00.494Z,97.53
2017-07-24T04:35:00.432Z,97.47
2017-07-24T04:36:00.514Z,97.47
2017-07-24T04:37:00.479Z,97.45
2017-07-24T04:38:00.443Z,97.39
2017-07-24T04:39:00.451Z,97.28
2017-07-24T04:40:00.499Z,97.39
2017-07-24T04:41:00.492Z,97.39
2017-07-24T04:42:00.468Z,97.47
2017-07-24T04:43:00.454Z,97.34
2017-07-24T04:44:00.440Z,97.21
2017-07-24T04:45:00.430Z,97.34
2017-07-24T04:46:00.461Z,97.26
2017-07-24T04:47:00.505Z,97.21
2017-07-24T04:48:00.498Z,97.10
2017-07-24T04:49:00.499Z,97.10
2017-07-24T04:50:00.516Z,97.02
2017-07-24T04:51:00.432Z,97.50
2017-07-24T04:52:00.503Z,97.85
2017-07-24T04:53:00.470Z,97.53
2017-07-24T04:54:00.377Z,97.31
2017-07-24T04:55:00.380Z,97.39
2017-07-24T04:56:00.395Z,97.50
2017-07-24T04:57:00.413Z,97.55
2017-07-24T04:58:00.369Z,97.28
2017-07-24T04:59:00.377Z,97.61
2017-07-24T05:00:00.458Z,97.64
2017-07-24T05:01:00.444Z,97.34
2017-07-24T05:02:00.414Z,97.74
2017-07-24T05:03:00.412Z,97.77
2017-07-24T05:04:00.455Z,97.88
2017-07-24T05:05:00.448Z,97.80
2017-07-24T05:06:00.443Z,97.61
2017-07-24T05:07:00.437Z,97.55
2017-07-24T05:08:00.475Z,97.45
2017-07-24T05:09:00.422Z,97.77
2017-07-24T05:10:00.392Z,98.02
2017-07-24T05:11:00.474Z,97.99
2017-07-24T05:12:00.404Z,97.66
2017-07-24T05:13:00.511Z,97.47
2017-07-24T05:14:00.439Z,97.34
2017-07-24T05:15:00.446Z,97.55
2017-07-24T05:16:00.451Z,98.10
2017-07-24T05:17:00.469Z,99.15
2017-07-24T05:18:00.479Z,98.77
2017-07-24T05:19:00.473Z,98.88
2017-07-24T05:20:00.449Z,99.40
2017-07-24T05:21:00.490Z,99.13
2017-07-24T05:22:00.487Z,99.02
2017-07-24T05:23:00.459Z,98.83
2017-07-24T05:24:00.461Z,98.80
2017-07-24T05:25:00.525Z,98.75
2017-07-24T05:26:00.483Z,98.80
2017-07-24T05:27:00.455Z,98.94
2017-07-24T05:28:00.454Z,99.29
2017-07-24T05:29:00.457Z,98.91
2017-07-24T05:30:00.456Z,98.37
2017-07-24T05:31:00.524Z,97.88
2017-07-24T05:32:00.511Z,97.34
2017-07-24T05:33:00.509Z,97.07
2017-07-24T05:34:00.462Z,95.85
2017-07-24T05:35:00.491Z,95.58
2017-07-24T05:36:00.519Z,96.47
2017-07-24T05:37:00.458Z,97.93
2017-07-24T05:38:00.533Z,98.40
2017-07-24T05:39:00.533Z,98.31
2017-07-24T05:40:00.548Z,97.93
2017-07-24T05:41:00.484Z,97.93
2017-07-24T05:42:00.491Z,98.48
2017-07-24T05:43:00.458Z,98.53
2017-07-24T05:44:00.517Z,98.10
2017-07-24T05:45:00.455Z,97.80
2017-07-24T05:46:00.461Z,98.50
2017-07-24T05:47:00.490Z,98.80
2017-07-24T05:48:00.519Z,99.04
2017-07-24T05:49:00.458Z,99.43
2017-07-24T05:50:00.502Z,99.32
2017-07-24T05:51:00.470Z,99.18
2017-07-24T05:52:00.471Z,98.53
2017-07-24T05:53:00.571Z,98.45
2017-07-24T05:54:00.522Z,98.26
2017-07-24T05:55:00.543Z,98.29
2017-07-24T05:56:00.469Z,98.23
2017-07-24T05:57:00.535Z,98.26
2017-07-24T05:58:00.543Z,98.26
2017-07-24T05:59:00.507Z,98.10
2017-07-24T06:00:00.481Z,98.45
2017-07-24T06:01:00.519Z,99.18
2017-07-24T06:02:00.497Z,99.18
2017-07-24T06:03:00.527Z,98.91
2017-07-24T06:04:00.529Z,98.91
2017-07-24T06:05:00.532Z,99.07
2017-07-24T06:06:00.497Z,99.29
2017-07-24T06:07:00.502Z,99.23
2017-07-24T06:08:00.469Z,99.29
2017-07-24T06:09:00.501Z,99.21
2017-07-24T06:10:00.528Z,98.88
2017-07-24T06:11:00.440Z,98.94
2017-07-24T06:12:00.421Z,99.32
2017-07-24T06:13:00.493Z,99.64
2017-07-24T06:14:00.479Z,99.99
2017-07-24T06:15:00.480Z,99.99
2017-07-24T06:16:00.497Z,99.99
2017-07-24T06:17:00.463Z,99.99
2017-07-24T06:18:00.467Z,99.99
2017-07-24T06:19:00.533Z,99.99
2017-07-24T06:20:00.463Z,99.99
2017-07-24T06:21:00.462Z,99.99
2017-07-24T06:22:00.549Z,99.99
2017-07-24T06:23:00.457Z,99.99
2017-07-24T06:24:00.463Z,99.99
2017-07-24T06:25:00.494Z,99.99
2017-07-24T06:26:00.459Z,99.99
2017-07-24T06:27:00.506Z,99.99
2017-07-24T06:28:00.514Z,99.99
2017-07-24T06:29:00.489Z,99.99
2017-07-24T06:30:00.467Z,99.99
2017-07-24T06:31:00.496Z,99.99
2017-07-24T06:32:00.559Z,99.99
2017-07-24T06:33:00.490Z,99.99
2017-07-24T06:34:00.494Z,99.99
2017-07-24T06:35:00.588Z,99.99
2017-07-24T06:36:00.495Z,99.99
2017-07-24T06:37:00.498Z,99.99
2017-07-24T06:38:00.591Z,99.99
2017-07-24T06:39:00.562Z,99.99
2017-07-24T06:40:00.532Z,99.99
2017-07-24T06:41:00.513Z,99.99
2017-07-24T06:42:00.487Z,99.99
2017-07-24T06:44:00.487Z,99.99
2017-07-24T06:45:00.478Z,99.99
2017-07-24T06:46:00.520Z,99.99
2017-07-24T06:47:00.518Z,99.99
2017-07-24T06:48:00.491Z,99.99
2017-07-24T06:49:00.523Z,99.99
2017-07-24T06:50:00.555Z,99.99
2017-07-24T06:51:00.527Z,99.99
2017-07-24T06:52:00.479Z,99.99
2017-07-24T06:53:00.518Z,99.99
2017-07-24T06:54:00.572Z,99.99
2017-07-24T06:55:00.480Z,99.99
2017-07-24T06:56:00.571Z,99.99
2017-07-24T06:57:00.526Z,99.99
2017-07-24T06:58:00.530Z,99.99
2017-07-24T06:59:00.526Z,99.99
2017-07-24T07:00:00.506Z,99.99
2017-07-24T07:01:00.563Z,99.99
2017-07-24T07:02:00.508Z,99.99
2017-07-24T07:03:00.579Z,99.86
2017-07-24T07:04:00.508Z,99.37
2017-07-24T07:05:00.542Z,99.78
2017-07-24T07:06:00.599Z,99.89
2017-07-24T07:07:00.512Z,99.94
2017-07-24T07:08:00.578Z,99.99
2017-07-24T07:09:00.588Z,99.99
2017-07-24T07:10:00.516Z,99.99
2017-07-24T07:11:00.546Z,99.99
2017-07-24T07:12:00.544Z,99.99
2017-07-24T07:13:00.564Z,99.99
2017-07-24T07:14:00.533Z,99.99
2017-07-24T07:15:00.568Z,99.99
2017-07-24T07:16:00.536Z,99.99
2017-07-24T07:17:00.537Z,99.99
2017-07-24T07:18:00.508Z,99.99
2017-07-24T07:19:00.534Z,99.99
2017-07-24T07:20:00.537Z,99.99
2017-07-24T07:21:00.581Z,99.99
2017-07-24T07:22:00.615Z,99.99
2017-07-24T07:23:00.559Z,99.99
2017-07-24T07:24:00.615Z,99.99
2017-07-24T07:25:00.607Z,99.99
2017-07-24T07:26:00.615Z,99.99
2017-07-24T07:27:00.525Z,99.99
2017-07-24T07:28:00.562Z,99.99
2017-07-24T07:29:00.557Z,99.99
2017-07-24T07:30:00.523Z,99.99
2017-07-24T07:31:00.518Z,99.99
2017-07-24T07:32:00.610Z,99.99
2017-07-24T07:33:00.525Z,99.99
2017-07-24T07:34:00.534Z,99.99
2017-07-24T07:35:00.529Z,99.99
2017-07-24T07:36:00.531Z,99.99
2017-07-24T07:37:00.498Z,99.99
2017-07-24T07:38:00.530Z,99.99
2017-07-24T07:39:00.553Z,99.99
2017-07-24T07:40:00.548Z,99.99
2017-07-24T07:41:00.585Z,99.99
2017-07-24T07:42:00.589Z,99.99
2017-07-24T07:43:00.521Z,99.99
2017-07-24T07:44:00.563Z,99.99
2017-07-24T07:45:00.529Z,99.99
2017-07-24T07:46:00.524Z,99.99
2017-07-24T07:47:00.525Z,99.99
2017-07-24T07:48:00.552Z,99.99
2017-07-24T07:49:00.664Z,99.99
2017-07-24T07:50:00.553Z,99.99
2017-07-24T07:51:00.591Z,99.99
2017-07-24T07:52:00.592Z,99.99
2017-07-24T07:53:00.531Z,99.99
2017-07-24T07:54:00.527Z,99.99
2017-07-24T07:55:00.557Z,99.99
2017-07-24T07:56:00.598Z,99.99
2017-07-24T07:57:00.596Z,99.99
2017-07-24T07:58:00.533Z,99.99
2017-07-24T07:59:00.535Z,99.99
2017-07-24T08:00:00.562Z,99.99
2017-07-24T08:01:00.613Z,99.99
2017-07-24T08:02:00.612Z,99.99
2017-07-24T08:03:00.638Z,99.99
2017-07-24T08:04:00.569Z,99.99
2017-07-24T08:05:00.543Z,99.99
2017-07-24T08:06:00.622Z,99.99
2017-07-24T08:07:00.635Z,99.99
2017-07-24T08:08:00.548Z,99.99
2017-07-24T08:09:00.545Z,99.99
2017-07-24T08:10:00.568Z,99.99
2017-07-24T08:11:00.614Z,99.99
2017-07-24T08:12:00.545Z,99.99
2017-07-24T08:13:00.500Z,99.99
2017-07-24T08:14:00.569Z,99.99
2017-07-24T08:15:00.572Z,99.99
2017-07-24T08:16:00.546Z,99.99
2017-07-24T08:17:00.525Z,99.99
2017-07-24T08:18:00.573Z,99.99
2017-07-24T08:19:00.551Z,99.99
2017-07-24T08:20:00.612Z,99.99
2017-07-24T08:21:00.628Z,99.99
2017-07-24T08:22:00.552Z,99.99
2017-07-24T08:23:00.588Z,99.99
2017-07-24T08:24:00.584Z,99.99
2017-07-24T08:25:00.620Z,99.99
2017-07-24T08:26:00.622Z,99.99
2017-07-24T08:27:00.630Z,99.99
2017-07-24T08:28:00.596Z,99.99
2017-07-24T08:29:00.563Z,99.99
2017-07-24T08:30:00.592Z,99.99
2017-07-24T08:31:00.575Z,99.99
2017-07-24T08:32:00.579Z,99.99
2017-07-24T08:33:00.567Z,99.99
2017-07-24T08:34:00.628Z,99.99
2017-07-24T08:35:00.564Z,99.99
2017-07-24T08:36:00.587Z,99.99
2017-07-24T08:37:00.581Z,99.99
2017-07-24T08:38:00.581Z,99.99
2017-07-24T08:39:00.585Z,99.99
2017-07-24T08:40:00.576Z,99.99
2017-07-24T08:41:00.561Z,99.99
2017-07-24T08:42:00.577Z,99.99
2017-07-24T08:43:00.562Z,99.99
2017-07-24T08:44:00.589Z,99.99
2017-07-24T08:45:00.564Z,99.99
2017-07-24T08:46:00.564Z,99.99
2017-07-24T08:47:00.633Z,99.99
2017-07-24T08:48:00.563Z,99.99
2017-07-24T08:49:00.563Z,99.92
2017-07-24T08:50:00.594Z,99.99
2017-07-24T08:51:00.569Z,99.99
2017-07-24T08:52:00.600Z,99.99
2017-07-24T08:53:00.634Z,99.99
2017-07-24T08:54:00.643Z,99.99
2017-07-24T08:55:00.602Z,99.99
2017-07-24T08:56:00.608Z,99.72
2017-07-24T08:57:00.663Z,99.72
2017-07-24T08:58:00.577Z,99.59
2017-07-24T08:59:00.584Z,99.99
2017-07-24T09:00:00.671Z,98.99
2017-07-24T09:01:00.573Z,99.89
2017-07-24T09:02:00.645Z,99.99
2017-07-24T09:03:00.641Z,99.83
2017-07-24T09:04:00.599Z,99.86
2017-07-24T09:05:00.670Z,99.86
2017-07-24T09:06:00.584Z,99.99
2017-07-24T09:07:00.612Z,99.99
2017-07-24T09:08:00.642Z,99.99
2017-07-24T09:09:00.578Z,99.99
2017-07-24T09:10:00.640Z,99.99
2017-07-24T09:11:00.606Z,99.94
2017-07-24T09:12:00.606Z,99.99
2017-07-24T09:13:00.577Z,99.99
2017-07-24T09:14:00.644Z,99.99
2017-07-24T09:15:00.603Z,99.99
2017-07-24T09:16:00.573Z,99.99
2017-07-24T09:17:00.642Z,99.99
2017-07-24T09:18:00.607Z,99.99
2017-07-24T09:19:00.607Z,99.99
2017-07-24T09:20:00.576Z,99.99
2017-07-24T09:21:00.617Z,99.99
2017-07-24T09:22:00.649Z,99.99
2017-07-24T09:23:00.590Z,99.99
2017-07-24T09:24:00.681Z,99.99
2017-07-24T09:25:00.684Z,99.02
2017-07-24T09:26:00.645Z,99.29
2017-07-24T09:27:00.629Z,99.99
2017-07-24T09:28:00.618Z,99.99
2017-07-24T09:29:00.679Z,99.99
2017-07-24T09:30:00.620Z,99.99
2017-07-24T09:31:00.592Z,99.99
2017-07-24T09:32:00.564Z,99.99
2017-07-24T09:33:00.607Z,99.99
2017-07-24T09:34:00.590Z,99.99
2017-07-24T09:35:00.596Z,99.99
2017-07-24T09:36:00.614Z,99.99
2017-07-24T09:37:00.621Z,99.99
2017-07-24T09:38:00.600Z,99.99
2017-07-24T09:39:00.610Z,99.99
2017-07-24T09:40:00.561Z,99.99
2017-07-24T09:41:00.623Z,99.99
2017-07-24T09:42:00.594Z,99.99
2017-07-24T09:43:00.619Z,99.99
2017-07-24T09:44:00.620Z,99.99
2017-07-24T09:45:00.595Z,99.99
2017-07-24T09:46:00.661Z,99.99
2017-07-24T09:47:00.621Z,99.99
2017-07-24T09:48:00.592Z,99.99
2017-07-24T09:49:00.623Z,99.99
2017-07-24T09:50:00.594Z,99.99
2017-07-24T09:51:00.630Z,99.99
2017-07-24T09:52:00.631Z,99.99
2017-07-24T09:53:00.657Z,99.99
2017-07-24T09:54:00.660Z,99.99
2017-07-24T09:55:00.597Z,99.99
2017-07-24T09:56:00.595Z,99.99
2017-07-24T09:57:00.631Z,99.99
2017-07-24T09:58:00.629Z,99.99
2017-07-24T09:59:00.662Z,99.99
2017-07-24T10:00:00.671Z,99.99
2017-07-24T10:01:00.594Z,99.99
2017-07-24T10:02:00.685Z,99.99
2017-07-24T10:03:00.667Z,99.99
2017-07-24T10:04:00.683Z,99.99
2017-07-24T10:05:00.683Z,99.99
2017-07-24T10:06:00.645Z,99.99
2017-07-24T10:07:00.739Z,99.99
2017-07-24T10:08:00.648Z,99.99
2017-07-24T10:09:00.678Z,99.99
2017-07-24T10:10:00.636Z,99.99
2017-07-24T10:11:00.614Z,99.99
2017-07-24T10:12:00.616Z,99.99
2017-07-24T10:13:00.607Z,99.99
2017-07-24T10:14:00.623Z,99.99
2017-07-24T10:15:00.586Z,99.99
2017-07-24T10:16:00.623Z,99.99
2017-07-24T10:17:00.620Z,99.99
2017-07-24T10:18:00.616Z,99.99
2017-07-24T10:19:00.617Z,99.99
2017-07-24T10:20:00.619Z,99.99
2017-07-24T10:21:00.618Z,99.99
2017-07-24T10:22:00.655Z,99.99
2017-07-24T10:23:00.686Z,99.99
2017-07-24T10:24:00.651Z,99.99
2017-07-24T10:25:00.697Z,99.99
2017-07-24T10:26:00.625Z,99.99
2017-07-24T10:27:00.699Z,99.99
2017-07-24T10:28:00.664Z,99.99
2017-07-24T10:29:00.691Z,99.99
2017-07-24T10:30:00.694Z,99.99
2017-07-24T10:31:00.630Z,99.99
2017-07-24T10:32:00.683Z,99.99
2017-07-24T10:33:00.668Z,99.99
2017-07-24T10:34:00.669Z,99.99
2017-07-24T10:35:00.636Z,99.99
2017-07-24T10:36:00.687Z,99.99
2017-07-24T10:37:00.707Z,99.99
2017-07-24T10:38:00.633Z,99.99
2017-07-24T10:39:00.697Z,99.99
2017-07-24T10:40:00.638Z,99.99
2017-07-24T10:41:00.712Z,99.99
2017-07-24T10:42:00.662Z,99.99
2017-07-24T10:43:00.731Z,99.99
2017-07-24T10:44:00.728Z,99.99
2017-07-24T10:45:00.689Z,99.99
2017-07-24T10:46:00.696Z,99.99
2017-07-24T10:47:00.676Z,99.99
2017-07-24T10:48:00.699Z,99.99
2017-07-24T10:49:00.675Z,99.99
2017-07-24T10:50:00.714Z,99.99
2017-07-24T10:51:00.645Z,99.99
2017-07-24T10:52:00.663Z,99.99
2017-07-24T10:53:00.635Z,99.99
2017-07-24T10:54:00.666Z,99.99
2017-07-24T10:55:00.677Z,99.99
2017-07-24T10:56:00.669Z,99.99
2017-07-24T10:57:00.637Z,99.99
2017-07-24T10:58:00.664Z,99.99
2017-07-24T10:59:00.702Z,99.99
2017-07-24T11:00:00.634Z,99.99
2017-07-24T11:01:00.665Z,99.99
2017-07-24T11:02:00.667Z,99.99
2017-07-24T11:03:00.673Z,99.99
2017-07-24T11:04:00.643Z,99.99
2017-07-24T11:05:00.703Z,99.99
2017-07-24T11:06:00.703Z,99.99
2017-07-24T11:07:00.668Z,99.99
2017-07-24T11:08:00.640Z,99.99
2017-07-24T11:09:00.703Z,99.99
2017-07-24T11:10:00.673Z,99.99
2017-07-24T11:11:00.637Z,99.99
2017-07-24T11:12:00.654Z,99.99
2017-07-24T11:14:00.728Z,99.99
2017-07-24T11:15:00.691Z,99.99
2017-07-24T11:16:00.746Z,99.99
2017-07-24T11:17:00.656Z,99.99
2017-07-24T11:18:00.721Z,99.99
2017-07-24T11:19:00.688Z,99.99
2017-07-24T11:20:00.662Z,99.99
2017-07-24T11:21:00.693Z,99.99
2017-07-24T11:22:00.712Z,99.99
2017-07-24T11:23:00.668Z,99.99
2017-07-24T11:24:00.726Z,99.99
2017-07-24T11:25:00.661Z,99.99
2017-07-24T11:26:00.697Z,99.99
2017-07-24T11:27:00.684Z,99.99
2017-07-24T11:28:00.721Z,99.99
2017-07-24T11:29:00.726Z,99.99
2017-07-24T11:30:00.735Z,99.99
2017-07-24T11:31:00.664Z,99.99
2017-07-24T11:32:00.766Z,99.99
2017-07-24T11:33:00.665Z,99.99
2017-07-24T11:34:00.721Z,99.99
2017-07-24T11:35:00.666Z,99.99
2017-07-24T11:36:00.691Z,99.99
2017-07-24T11:37:00.694Z,99.99
2017-07-24T11:38:00.756Z,99.99
2017-07-24T11:39:00.698Z,99.99
2017-07-24T11:40:00.672Z,99.99
2017-07-24T11:41:00.743Z,99.99
2017-07-24T11:42:00.695Z,99.99
2017-07-24T11:43:00.742Z,99.99
2017-07-24T11:44:00.679Z,99.99
2017-07-24T11:45:00.765Z,99.99
2017-07-24T11:46:00.672Z,99.99
2017-07-24T11:47:00.707Z,99.99
2017-07-24T11:48:00.706Z,99.99
2017-07-24T11:49:00.745Z,99.99
2017-07-24T11:50:00.673Z,99.99
2017-07-24T11:51:00.709Z,99.99
2017-07-24T11:52:00.701Z,99.99
2017-07-24T11:53:00.695Z,99.99
2017-07-24T11:54:00.664Z,99.99
2017-07-24T11:55:00.701Z,99.99
2017-07-24T11:56:00.668Z,99.99
2017-07-24T11:57:00.706Z,99.99
2017-07-24T11:58:00.734Z,99.99
2017-07-24T11:59:00.736Z,99.99
2017-07-24T12:00:00.733Z,99.99
2017-07-24T12:01:00.718Z,99.99
2017-07-24T12:02:00.717Z,99.99
2017-07-24T12:03:00.706Z,99.99
2017-07-24T12:04:00.677Z,99.99
2017-07-24T12:05:00.737Z,99.99
2017-07-24T12:06:00.734Z,99.99
2017-07-24T12:07:00.704Z,99.99
2017-07-24T12:08:00.706Z,99.99
2017-07-24T12:09:00.733Z,99.99
2017-07-24T12:10:00.735Z,99.99
2017-07-24T12:11:00.705Z,99.99
2017-07-24T12:12:00.712Z,99.99
2017-07-24T12:13:00.722Z,99.99
2017-07-24T12:14:00.722Z,99.99
2017-07-24T12:15:00.788Z,99.99
2017-07-24T12:16:00.780Z,99.99
2017-07-24T12:17:00.763Z,99.99
2017-07-24T12:18:00.779Z,99.99
2017-07-24T12:19:00.786Z,99.99
2017-07-24T12:20:00.697Z,99.99
2017-07-24T12:21:00.764Z,99.99
2017-07-24T12:22:00.715Z,99.99
2017-07-24T12:23:00.689Z,99.99
2017-07-24T12:24:00.683Z,99.99
2017-07-24T12:25:00.717Z,99.99
2017-07-24T12:26:00.686Z,99.99
2017-07-24T12:27:00.820Z,99.99
2017-07-24T12:28:00.731Z,99.99
2017-07-24T12:29:00.754Z,99.99
2017-07-24T12:30:00.688Z,99.99
2017-07-24T12:31:00.690Z,99.99
2017-07-24T12:32:00.791Z,99.99
2017-07-24T12:33:00.771Z,99.99
2017-07-24T12:34:00.737Z,99.99
2017-07-24T12:35:00.723Z,99.99
2017-07-24T12:36:00.707Z,99.99
2017-07-24T12:37:00.743Z,99.99
2017-07-24T12:38:00.723Z,99.99
2017-07-24T12:39:00.707Z,99.99
2017-07-24T12:40:00.707Z,99.99
2017-07-24T12:41:00.772Z,99.99
2017-07-24T12:42:00.691Z,99.99
2017-07-24T12:43:00.726Z,99.99
2017-07-24T12:44:00.700Z,99.99
2017-07-24T12:45:00.694Z,99.99
2017-07-24T12:46:00.724Z,99.99
2017-07-24T12:47:00.693Z,99.99
2017-07-24T12:48:00.760Z,99.99
2017-07-24T12:49:00.765Z,99.99
2017-07-24T12:50:00.760Z,99.99
2017-07-24T12:51:00.730Z,99.99
2017-07-24T12:52:00.783Z,99.99
2017-07-24T12:53:00.756Z,99.99
2017-07-24T12:54:00.733Z,99.99